Imboden, AR (72434)

1:47 PM CST on February 08, 2016 (GMT -0600)
Walnut Ridge Regional | | Change Station
CLOSE
Current Station
Airport
Location: Walnut Ridge,
Elevation: 272 ft
Nearby Weather Stations
Active Advisory: Wind Advisory

Elev 272 ft 36.12 °N, 90.93 °W | Updated 12 minutes ago

Overcast
Overcast
39 °F
Feels Like 30 °F
N
17
Wind Variable Wind from NNW

Today
High -- | Low -- °F
--% Chance of Precip.
Yesterday
High -- | Low -- °F
Precip. -- in
Pressure 29.95 in
Visibility 10.0 miles
Clouds Overcast 6000 ft
Windchill 30 °F
Dew Point 19 °F
Humidity 45%
Rainfall 0.00 in
Snow Depth Not available.
7:00 AM 5:38 PM
New Moon, 0% visible
METAR KARG 081935Z AUTO 33015KT 10SM OVC060 04/M07 A2995 RMK AO1
Pressure 29.95 in
Visibility 10.0 miles
Clouds Overcast 6000 ft
Windchill 30 °F
Dew Point 19 °F
Humidity 45%
Rainfall 0.00 in
Snow Depth Not available.
7:00 AM 5:38 PM
New Moon, 0% visible
METAR KARG 081935Z AUTO 33015KT 10SM OVC060 04/M07 A2995 RMK AO1

10-Day Weather Forecast

Almanac

Astronomy

Feb. 08, 2016 Rise Set
Actual Time
Civil Twilight
Nautical Twilight
Astronomical Twilight
Moon
Length of Visible Light
Length of Day
Tomorrow will be .
, % of the Moon is Illuminated

Today's Extremes

State Highs State Lows

Community

WunderPhotos

Upload Photos

1,891,499 photos uploaded!

WunderBlog® & News

Nearby

Air Quality

  Air Quality AQ Index Pollutant
Not available.

Snow Depth

Station Depth Elevation

Earthquake Activity

City Distance Mag. Time & Date
Minimum magnitude displayed is 2.5.

Coastal Water Temperatures

Place Temperature

Stations

Nearby Weather Stations

Station Location Temp. Windchill Dew Point Humidity Wind Precip. Elev Updated Type
                   

Watches & Warnings

Wind Advisory
Issued: 3:52 AM CST Feb. 8, 2016 – National Weather Service

... Wind Advisory in effect from 9 am this morning to 6 PM CST
this evening...

The National Weather Service in Memphis has issued a Wind
Advisory... which is in effect from 9 am this morning to 6 PM CST
this evening.

* Winds... gusty northwest winds between 20 to 25 mph with gusts
up to 40 mph.

* Timing... from 9 am CST today to 6 PM CST this evening.

* Impacts... loose outdoor items will be vulnerable to the winds
and should be brought inside or tied down. Driving may become
hazardous... especially to high profile vehicles.

Precautionary/preparedness actions...

A Wind Advisory means that sustained winds of 25 to 39 mph are
expected... or gusts will range between 40 and 57 mph. Winds this
strong can make driving difficult... especially for high profile
vehicles. Use extra caution.